Keith, Illinois
Current Conditions -  °F | °C
As of 11:15 AM on Wednesday 26 Nov 2014 (Local Time) from KFOA Reporting Station
Clear Clear  
Wind Chill: -3°   Ceiling: Unl
Heat Index:   Visibility: 10mi
Dew Point: -1°   Wind: 8mph
Humidity: 85%   Direction: 130°SE
Pressure: 30.09"   Gusts: NA
Location:  38.5816°N, 88.4678°W
Report Text: KFOA 261715Z AUTO 13007KT 10SM CLR 01/M01 A3009 RMK AO2 T00111012
Loading
Personal Weather Stations






























Interactive Weather Map New forecast layout! Learn more

10-Day Weather Forecast

Advertisements
Track Severe Weather on mobile